Time;durP1;ratioP1;P1;durP2;ratioP2;P2;SDS_P1;SDS_P2;PMS_P1;PMS_P2;Temp;Humidity;BMP_temperature;BMP_pressure;BME280_temperature;BME280_humidity;BME280_pressure;Samples;Min_cycle;Max_cycle;Signal;HPM_P1;HPM_P2
2022/01/27 00:08:53;;;;;;;;;;;;;;;1.66;74.51;102099.59;5017739;28;20391;-78
2022/01/27 00:11:57;;;;;;;;;;;;;;;1.29;75.76;102103.50;5017309;28;20323;-78
2022/01/27 00:15:10;;;;;;;;;;;;;;;1.25;76.37;102101.72;5017747;28;20423;-78
2022/01/27 00:18:15;;;;;;;;;;;;;;;1.16;76.88;102108.50;5027317;28;20395;-78
2022/01/27 00:21:21;;;;;;;;;;;;;;;1.20;76.69;102098.22;5001772;28;20036;-79
2022/01/27 00:24:24;;;;;;;;;;;;;;;1.23;76.36;102093.97;5010070;28;20013;-78
2022/01/27 00:27:28;;;;;;;;;;;;;;;1.36;75.76;102082.94;4997712;28;20250;-78
2022/01/27 00:30:32;;;;;;;;;;;;;;;1.39;75.83;102075.25;5008404;28;19935;-78
2022/01/27 00:33:35;;;;;;;;;;;;;;;1.20;76.64;102077.63;5008037;28;19925;-78
2022/01/27 00:36:38;;;;;;;;;;;;;;;1.29;76.64;102070.00;5016272;28;20280;-78
2022/01/27 00:39:42;;;;;;;;;;;;;;;1.51;75.97;102059.06;5029746;28;19924;-78
2022/01/27 00:42:45;;;;;;;;;;;;;;;1.51;75.80;102060.75;5029260;28;20022;-78
2022/01/27 00:45:49;;;;;;;;;;;;;;;1.53;75.60;102061.63;5004826;28;20016;-78
2022/01/27 00:48:52;;;;;;;;;;;;;;;1.35;75.83;102070.06;5016120;28;20328;-78
2022/01/27 00:51:56;;;;;;;;;;;;;;;1.42;76.03;102074.41;5028889;28;20382;-78
2022/01/27 00:54:59;;;;;;;;;;;;;;;1.30;76.49;102079.44;5028531;28;19924;-78
2022/01/27 00:58:31;;;;;;;;;;;;;;;1.35;76.35;102088.09;4994523;28;20429;-78
2022/01/27 01:01:39;;;;;;;;;;;;;;;1.31;76.67;102081.19;5016799;28;19924;-78
2022/01/27 01:04:47;;;;;;;;;;;;;;;1.31;76.43;102079.47;5016042;28;20801;-78
2022/01/27 01:07:54;;;;;;;;;;;;;;;1.48;76.09;102079.63;4680040;28;10000329;-78
2022/01/27 01:17:34;;;;;;;;;;;;;;;1.30;76.26;102074.28;4994270;28;19924;-78
2022/01/27 01:33:56;;;;;;;;;;;;;;;1.24;76.84;102043.28;5024163;28;20332;-79
2022/01/27 01:37:05;;;;;;;;;;;;;;;1.29;76.34;102049.38;5024549;28;20383;-79
2022/01/27 01:40:14;;;;;;;;;;;;;;;1.20;77.12;102044.13;5025017;28;20012;-78
2022/01/27 01:43:18;;;;;;;;;;;;;;;1.04;77.62;102032.78;5012725;28;19928;-79
2022/01/27 01:46:22;;;;;;;;;;;;;;;1.17;76.89;102030.34;5000374;28;19924;-78
2022/01/27 01:49:26;;;;;;;;;;;;;;;0.98;77.53;102024.97;5013370;28;20276;-78
2022/01/27 01:52:30;;;;;;;;;;;;;;;1.05;77.38;102009.59;5013096;28;19966;-78
2022/01/27 01:55:33;;;;;;;;;;;;;;;1.05;77.61;102001.00;5024920;28;20146;-79
2022/01/27 01:58:36;;;;;;;;;;;;;;;1.00;77.40;101993.25;5016145;28;20107;-78
2022/01/27 02:01:41;;;;;;;;;;;;;;;1.07;76.66;101978.72;4994604;28;19925;-79
2022/01/27 02:04:45;;;;;;;;;;;;;;;1.10;76.74;101984.75;5009251;28;19920;-79
2022/01/27 02:22:25;;;;;;;;;;;;;;;0.88;77.79;101993.13;5050548;28;19966;-79
2022/01/27 02:25:29;;;;;;;;;;;;;;;0.94;77.69;101995.75;5013458;28;19967;-78
2022/01/27 02:28:32;;;;;;;;;;;;;;;1.03;77.58;101995.00;5031887;28;19923;-78
2022/01/27 02:31:35;;;;;;;;;;;;;;;1.10;77.16;101989.06;5019730;28;20363;-78
2022/01/27 02:34:39;;;;;;;;;;;;;;;1.04;77.31;101983.84;5033130;28;19920;-79
2022/01/27 02:37:42;;;;;;;;;;;;;;;1.08;77.47;101983.00;5007790;28;20019;-79
2022/01/27 02:40:49;;;;;;;;;;;;;;;1.18;76.88;101974.53;5029754;28;20319;-79
2022/01/27 02:43:52;;;;;;;;;;;;;;;1.01;77.20;101966.63;5033611;28;19959;-78
2022/01/27 02:46:55;;;;;;;;;;;;;;;1.15;77.33;101969.38;5033437;28;19920;-79
2022/01/27 02:49:59;;;;;;;;;;;;;;;1.15;76.66;101952.19;5032235;28;19912;-78
2022/01/27 02:53:02;;;;;;;;;;;;;;;1.17;76.86;101950.47;5032882;28;19920;-78
2022/01/27 02:56:05;;;;;;;;;;;;;;;1.16;77.09;101959.06;5002998;28;20452;-78
2022/01/27 02:59:09;;;;;;;;;;;;;;;1.25;77.04;101957.44;5012197;28;20285;-79
2022/01/27 03:02:12;;;;;;;;;;;;;;;1.23;76.59;101970.28;5013770;28;19920;-79
2022/01/27 03:05:15;;;;;;;;;;;;;;;1.04;76.96;101974.41;5013036;28;19967;-78
2022/01/27 03:08:18;;;;;;;;;;;;;;;0.91;77.24;101977.69;5011435;28;19960;-78
2022/01/27 03:11:40;;;;;;;;;;;;;;;0.90;77.27;101970.84;5029433;28;20268;-78
2022/01/27 03:14:44;;;;;;;;;;;;;;;0.78;77.74;101965.53;5029952;28;19920;-79
2022/01/27 03:17:48;;;;;;;;;;;;;;;0.78;77.69;101965.53;5031659;28;20268;-79
2022/01/27 03:20:51;;;;;;;;;;;;;;;0.90;77.66;101950.22;5031685;28;19919;-79
2022/01/27 03:23:55;;;;;;;;;;;;;;;0.81;77.94;101955.28;5030576;28;20023;-79
2022/01/27 03:26:58;;;;;;;;;;;;;;;0.99;77.20;101959.75;5019293;28;19963;-79
2022/01/27 03:30:02;;;;;;;;;;;;;;;0.89;77.31;101957.09;5019945;28;19963;-78
2022/01/27 03:33:05;;;;;;;;;;;;;;;0.99;76.87;101952.91;5019828;28;19923;-78
2022/01/27 03:36:08;;;;;;;;;;;;;;;1.11;76.91;101945.25;5020029;28;19967;-78
2022/01/27 03:39:16;;;;;;;;;;;;;;;1.10;76.57;101943.56;5013419;28;19924;-79
2022/01/27 03:42:19;;;;;;;;;;;;;;;1.11;76.74;101955.56;5011566;28;19981;-78
2022/01/27 03:45:23;;;;;;;;;;;;;;;1.13;76.58;101941.00;4999999;28;20006;-79
2022/01/27 03:48:27;;;;;;;;;;;;;;;1.39;75.38;101935.22;4999928;28;19968;-79
2022/01/27 03:51:30;;;;;;;;;;;;;;;1.19;75.67;101945.34;5000031;28;19968;-78
2022/01/27 03:54:33;;;;;;;;;;;;;;;1.16;76.12;101942.75;5011866;28;19920;-79
2022/01/27 03:57:37;;;;;;;;;;;;;;;1.16;76.17;101933.31;5011996;28;20435;-79
2022/01/27 04:00:41;;;;;;;;;;;;;;;1.08;76.79;101942.66;5011496;28;20381;-79
2022/01/27 04:03:44;;;;;;;;;;;;;;;1.10;76.71;101937.53;4999672;28;19967;-79
2022/01/27 04:06:51;;;;;;;;;;;;;;;1.20;76.16;101935.91;4986993;28;19964;-79
2022/01/27 04:09:54;;;;;;;;;;;;;;;1.19;76.14;101934.19;4999972;28;20007;-79
2022/01/27 04:12:57;;;;;;;;;;;;;;;1.12;76.47;101928.13;4999288;28;19920;-79
2022/01/27 04:16:01;;;;;;;;;;;;;;;1.14;76.31;101931.56;4999509;28;19975;-79
2022/01/27 04:19:05;;;;;;;;;;;;;;;1.02;76.78;101924.59;5010764;28;20323;-79
2022/01/27 04:22:08;;;;;;;;;;;;;;;1.25;76.11;101919.66;5010883;28;19935;-78
2022/01/27 04:25:13;;;;;;;;;;;;;;;1.16;75.78;101924.72;5030959;28;19933;-80
2022/01/27 04:28:24;;;;;;;;;;;;;;;1.16;75.83;101935.88;5031005;28;20368;-79
2022/01/27 04:31:28;;;;;;;;;;;;;;;1.11;76.36;101927.22;5018487;28;19924;-79
2022/01/27 04:34:32;;;;;;;;;;;;;;;1.40;75.74;101924.03;5030615;28;20368;-79
2022/01/27 04:37:40;;;;;;;;;;;;;;;1.47;75.27;101933.56;5020152;28;21184;-79
2022/01/27 04:41:06;;;;;;;;;;;;;;;1.46;75.38;101936.13;5030823;28;19924;-78
2022/01/27 04:47:21;;;;;;;;;;;;;;;1.32;75.10;101926.56;5028557;28;19963;-79
2022/01/27 04:50:26;;;;;;;;;;;;;;;1.20;75.93;101917.88;5029589;28;19920;-79
2022/01/27 04:53:35;;;;;;;;;;;;;;;1.14;76.50;101911.81;5030046;28;19920;-79
2022/01/27 04:56:40;;;;;;;;;;;;;;;1.09;76.37;101918.66;5017624;28;19920;-79
2022/01/27 04:59:44;;;;;;;;;;;;;;;1.27;75.88;101917.06;5018229;28;19924;-79
2022/01/27 05:02:55;;;;;;;;;;;;;;;1.26;75.97;101913.63;5030425;28;20317;-79
2022/01/27 05:05:58;;;;;;;;;;;;;;;1.17;76.00;101914.41;5017769;28;19967;-78
2022/01/27 05:09:02;;;;;;;;;;;;;;;1.14;76.43;101911.81;5030813;28;20004;-77
2022/01/27 05:12:19;;;;;;;;;;;;;;;1.35;75.77;101897.38;5030446;28;20043;-78
2022/01/27 05:15:24;;;;;;;;;;;;;;;1.25;76.02;101895.59;5029872;28;20034;-78
2022/01/27 05:18:27;;;;;;;;;;;;;;;1.46;75.68;101903.47;5029710;28;19924;-78
2022/01/27 05:21:33;;;;;;;;;;;;;;;1.35;75.63;101910.28;5030526;28;20529;-78
2022/01/27 05:24:36;;;;;;;;;;;;;;;1.56;75.24;101917.28;5029320;28;20039;-78
2022/01/27 05:27:39;;;;;;;;;;;;;;;1.53;75.58;101919.84;5015560;28;20379;-78
2022/01/27 05:30:43;;;;;;;;;;;;;;;1.67;74.90;101904.50;5029491;28;19974;-78
2022/01/27 05:33:46;;;;;;;;;;;;;;;1.46;75.17;101906.06;5029357;28;19924;-77
2022/01/27 05:36:51;;;;;;;;;;;;;;;1.66;75.02;101900.16;5017261;28;19924;-77
2022/01/27 05:44:45;;;;;;;;;;;;;;;1.46;74.95;101884.56;5010376;28;20008;-78
2022/01/27 05:47:49;;;;;;;;;;;;;;;1.55;75.47;101880.34;5020991;28;19970;-78
2022/01/27 05:50:53;;;;;;;;;;;;;;;1.65;74.71;101870.09;5029907;28;19970;-78
2022/01/27 05:53:56;;;;;;;;;;;;;;;1.50;75.01;101865.69;5029565;28;20022;-78
2022/01/27 05:57:00;;;;;;;;;;;;;;;1.60;75.05;101860.63;5028610;28;19959;-78
2022/01/27 06:00:04;;;;;;;;;;;;;;;1.60;74.95;101845.16;5029629;28;20040;-78
2022/01/27 06:03:15;;;;;;;;;;;;;;;1.72;74.71;101848.63;5029360;28;20019;-78
2022/01/27 06:06:19;;;;;;;;;;;;;;;1.73;74.96;101848.66;5027932;28;19920;-78
2022/01/27 06:09:22;;;;;;;;;;;;;;;1.88;74.42;101839.25;5006439;28;20046;-78
2022/01/27 06:12:26;;;;;;;;;;;;;;;1.97;74.12;101832.41;5030083;28;19959;-78
2022/01/27 06:15:29;;;;;;;;;;;;;;;1.90;74.10;101830.69;5021008;28;19924;-78
2022/01/27 06:18:32;;;;;;;;;;;;;;;2.00;73.96;101832.44;5027236;28;19987;-78
2022/01/27 06:21:40;;;;;;;;;;;;;;;2.00;74.12;101827.28;5028768;28;20502;-78
2022/01/27 06:24:46;;;;;;;;;;;;;;;1.85;74.46;101825.53;5029664;28;19924;-78
2022/01/27 06:27:50;;;;;;;;;;;;;;;1.87;74.81;101828.09;5029357;28;19963;-78
2022/01/27 06:31:18;;;;;;;;;;;;;;;1.81;74.88;101823.75;5027504;28;19924;-78
2022/01/27 06:34:22;;;;;;;;;;;;;;;1.96;74.60;101814.38;5011526;28;19970;-79
2022/01/27 06:37:28;;;;;;;;;;;;;;;1.96;74.69;101804.06;4976297;28;19924;-79
2022/01/27 06:40:33;;;;;;;;;;;;;;;1.95;74.80;101795.47;4993781;28;19920;-79
2022/01/27 06:43:37;;;;;;;;;;;;;;;1.88;75.50;101795.41;4997575;28;20284;-79
2022/01/27 06:46:40;;;;;;;;;;;;;;;1.88;75.33;101795.41;5011553;28;19924;-79
2022/01/27 06:49:44;;;;;;;;;;;;;;;1.86;75.71;101782.53;5012005;28;19920;-79
2022/01/27 06:52:47;;;;;;;;;;;;;;;1.60;76.85;101780.69;5011404;28;19923;-79
2022/01/27 06:55:51;;;;;;;;;;;;;;;1.71;76.98;101778.16;4999795;28;19921;-78
2022/01/27 06:59:25;;;;;;;;;;;;;;;1.69;77.46;101758.38;5012287;28;20241;-78
2022/01/27 07:02:29;;;;;;;;;;;;;;;1.90;76.76;101760.19;5013764;28;20007;-79
2022/01/27 07:05:33;;;;;;;;;;;;;;;1.99;76.65;101750.75;5001483;28;20350;-79
2022/01/27 07:08:36;;;;;;;;;;;;;;;1.98;76.96;101754.19;5013104;28;19960;-79
2022/01/27 07:11:40;;;;;;;;;;;;;;;1.97;76.75;101756.75;5000319;28;19934;-79
2022/01/27 07:14:43;;;;;;;;;;;;;;;2.06;76.79;101762.81;5000176;28;20312;-77
2022/01/27 07:17:47;;;;;;;;;;;;;;;1.95;77.42;101771.38;4998467;28;19923;-78
2022/01/27 07:20:51;;;;;;;;;;;;;;;1.75;78.37;101756.69;4999559;28;20379;-78
2022/01/27 07:23:54;;;;;;;;;;;;;;;1.91;78.21;101757.59;5011487;28;19967;-79
2022/01/27 07:27:06;;;;;;;;;;;;;;;1.76;78.53;101749.84;5010530;28;19922;-79
2022/01/27 07:30:28;;;;;;;;;;;;;;;1.83;78.49;101751.56;5000373;28;19936;-78
2022/01/27 07:33:39;;;;;;;;;;;;;;;1.78;78.89;101740.34;5030279;28;20267;-78
2022/01/27 07:36:44;;;;;;;;;;;;;;;1.82;78.78;101742.97;5007049;28;19920;-78
2022/01/27 07:39:56;;;;;;;;;;;;;;;1.70;79.25;101734.34;5030718;28;19971;-78
2022/01/27 07:43:05;;;;;;;;;;;;;;;1.81;79.00;101742.94;5007431;28;19920;-78
2022/01/27 07:46:11;;;;;;;;;;;;;;;1.76;79.78;101735.22;5018227;28;19967;-78
2022/01/27 07:49:14;;;;;;;;;;;;;;;1.84;79.57;101737.81;5031122;28;19974;-78
2022/01/27 07:52:20;;;;;;;;;;;;;;;1.95;79.02;101736.13;5007770;28;19920;-78
2022/01/27 07:55:24;;;;;;;;;;;;;;;1.80;79.40;101725.75;5018740;28;19927;-79
2022/01/27 07:58:53;;;;;;;;;;;;;;;2.04;79.03;101718.09;5017646;28;19924;-78
2022/01/27 08:01:56;;;;;;;;;;;;;;;2.06;78.73;101724.09;5018325;28;19935;-78
2022/01/27 08:05:04;;;;;;;;;;;;;;;2.09;78.70;101726.69;5031393;28;19916;-78
2022/01/27 08:08:08;;;;;;;;;;;;;;;2.02;79.24;101727.53;5007983;28;20306;-78
2022/01/27 08:11:11;;;;;;;;;;;;;;;2.12;78.72;101737.88;5018358;28;19920;-79
2022/01/27 08:14:23;;;;;;;;;;;;;;;2.09;78.92;101721.53;5019568;28;20375;-79
2022/01/27 08:17:26;;;;;;;;;;;;;;;2.21;78.70;101715.53;5031990;28;20383;-79
2022/01/27 08:20:30;;;;;;;;;;;;;;;2.28;78.44;101704.34;5031045;28;19919;-79
2022/01/27 08:23:33;;;;;;;;;;;;;;;2.32;78.62;101713.81;5030969;28;19924;-79
2022/01/27 08:26:43;;;;;;;;;;;;;;;2.45;78.18;101711.25;5030907;28;20279;-79
2022/01/27 08:29:53;;;;;;;;;;;;;;;2.40;78.40;101708.66;5017829;28;19920;-79
2022/01/27 08:36:00;;;;;;;;;;;;;;;2.47;78.48;101710.38;5030259;28;19967;-79
2022/01/27 08:39:04;;;;;;;;;;;;;;;2.57;78.46;101706.09;5015766;28;19925;-79
2022/01/27 08:42:07;;;;;;;;;;;;;;;2.52;78.38;101697.47;5018254;28;20431;-81
2022/01/27 08:45:12;;;;;;;;;;;;;;;2.61;78.47;101702.63;5019293;28;20389;-80
2022/01/27 08:48:18;;;;;;;;;;;;;;;2.53;78.75;101702.66;5017184;28;19971;-80
2022/01/27 08:51:22;;;;;;;;;;;;;;;2.54;79.07;101701.78;5005293;28;20428;-79
2022/01/27 08:54:26;;;;;;;;;;;;;;;2.67;78.58;101687.13;5028399;28;19920;-80
2022/01/27 08:57:29;;;;;;;;;;;;;;;2.73;78.81;101691.44;5028734;28;20383;-80
2022/01/27 09:00:32;;;;;;;;;;;;;;;2.81;78.34;101679.38;5028049;28;20001;-79
2022/01/27 09:03:36;;;;;;;;;;;;;;;2.72;79.15;101674.22;5030036;28;20058;-80
2022/01/27 09:06:39;;;;;;;;;;;;;;;2.80;78.92;101662.16;5029960;28;19920;-79
2022/01/27 09:09:43;;;;;;;;;;;;;;;2.88;78.57;101663.00;5029015;28;20036;-80
2022/01/27 09:12:46;;;;;;;;;;;;;;;2.94;78.69;101657.81;5028044;28;19995;-80
2022/01/27 09:15:50;;;;;;;;;;;;;;;2.97;78.69;101654.38;5028122;28;19920;-80
2022/01/27 09:18:54;;;;;;;;;;;;;;;2.94;78.56;101647.50;5016120;28;19924;-82
2022/01/27 09:21:57;;;;;;;;;;;;;;;2.91;78.65;101665.59;5004092;28;19974;-82
2022/01/27 09:25:08;;;;;;;;;;;;;;;2.88;79.05;101659.56;5017195;28;19974;-80
2022/01/27 09:28:12;;;;;;;;;;;;;;;3.02;78.86;101650.91;5016957;28;20307;-79
2022/01/27 09:31:16;;;;;;;;;;;;;;;3.11;78.33;101644.00;5016586;28;20396;-79
2022/01/27 09:34:20;;;;;;;;;;;;;;;3.05;78.45;101633.66;5016079;28;19923;-79
2022/01/27 09:37:23;;;;;;;;;;;;;;;3.25;78.24;101630.16;5027270;28;19959;-79
2022/01/27 09:40:30;;;;;;;;;;;;;;;3.37;77.72;101624.06;5015922;28;20356;-81
2022/01/27 09:43:35;;;;;;;;;;;;;;;3.40;77.23;101621.44;5015374;28;20375;-80
2022/01/27 09:46:45;;;;;;;;;;;;;;;3.40;77.83;101647.31;5016170;28;20028;-80
2022/01/27 09:50:04;;;;;;;;;;;;;;;3.51;77.35;101647.28;5027312;28;20280;-80
2022/01/27 09:53:08;;;;;;;;;;;;;;;3.46;77.58;101652.44;5027684;28;19919;-79
2022/01/27 09:56:12;;;;;;;;;;;;;;;3.41;77.86;101661.09;5015616;28;19919;-79
2022/01/27 09:59:16;;;;;;;;;;;;;;;3.35;77.80;101659.41;5027622;28;19939;-80
2022/01/27 10:02:21;;;;;;;;;;;;;;;3.30;78.00;101660.28;5028582;28;20418;-79
2022/01/27 10:05:25;;;;;;;;;;;;;;;3.32;78.50;101645.63;5027625;28;19920;-79
2022/01/27 10:08:28;;;;;;;;;;;;;;;3.46;77.76;101639.53;5028273;28;20022;-79
2022/01/27 10:11:33;;;;;;;;;;;;;;;3.46;77.71;101642.09;5015499;28;19978;-79
2022/01/27 10:14:38;;;;;;;;;;;;;;;3.48;77.94;101627.44;5015140;28;19920;-79
2022/01/27 10:18:00;;;;;;;;;;;;;;;3.61;77.55;101630.84;5016273;28;19920;-79
2022/01/27 10:21:08;;;;;;;;;;;;;;;3.71;77.25;101635.06;5012458;28;19921;-79
2022/01/27 10:24:15;;;;;;;;;;;;;;;3.61;77.79;101637.72;5011892;28;20469;-80
2022/01/27 10:33:44;;;;;;;;;;;;;;;3.62;77.99;101629.09;5021173;28;19924;-80
2022/01/27 10:41:33;;;;;;;;;;;;;;;3.54;78.52;101630.84;5026424;28;19972;-79
2022/01/27 10:44:44;;;;;;;;;;;;;;;3.58;78.74;101622.22;5030954;28;20280;-79
2022/01/27 10:52:42;;;;;;;;;;;;;;;3.63;79.47;101630.81;5010221;28;19924;-78
2022/01/27 11:00:36;;;;;;;;;;;;;;;3.56;81.63;101621.38;5028391;28;19921;-79
2022/01/27 11:03:48;;;;;;;;;;;;;;;3.49;81.30;101634.34;5029918;28;20070;-79
2022/01/27 11:06:58;;;;;;;;;;;;;;;3.49;82.22;101634.34;5012517;28;20021;-79
2022/01/27 11:10:01;;;;;;;;;;;;;;;3.37;82.90;101646.47;5000754;28;19959;-79
2022/01/27 11:13:11;;;;;;;;;;;;;;;3.48;82.99;101637.81;5019967;28;19920;-80
2022/01/27 11:16:17;;;;;;;;;;;;;;;3.36;83.93;101630.09;5031204;28;19924;-79
2022/01/27 11:22:58;;;;;;;;;;;;;;;3.31;84.55;101616.31;5012810;28;19919;-79
2022/01/27 11:25:53;;;;;;;;;;;;;;;3.33;85.07;101600.81;4998691;28;19983;-79
2022/01/27 11:28:58;;;;;;;;;;;;;;;3.29;85.49;101604.25;5009812;28;19920;-79
2022/01/27 11:32:17;;;;;;;;;;;;;;;3.32;84.96;101593.91;5013995;28;19923;-79
2022/01/27 11:35:22;;;;;;;;;;;;;;;3.39;84.76;101580.97;5030622;28;19936;-79
2022/01/27 11:38:28;;;;;;;;;;;;;;;3.50;84.12;101576.56;5030482;28;20458;-79
2022/01/27 11:41:45;;;;;;;;;;;;;;;3.57;84.39;101569.63;5017714;28;20327;-79
2022/01/27 11:44:49;;;;;;;;;;;;;;;3.45;84.25;101555.06;5030523;28;19986;-79
2022/01/27 11:47:54;;;;;;;;;;;;;;;3.26;85.13;101564.66;5017711;28;19940;-79
2022/01/27 11:51:03;;;;;;;;;;;;;;;3.29;85.09;101575.84;5030306;28;19979;-79
2022/01/27 11:54:25;;;;;;;;;;;;;;;3.24;85.43;101570.69;5028977;28;19924;-79
2022/01/27 11:57:40;;;;;;;;;;;;;;;3.36;84.84;101570.63;5018291;28;20318;-79
2022/01/27 12:01:14;;;;;;;;;;;;;;;3.38;84.95;101579.25;5016807;28;19924;-79
2022/01/27 12:04:24;;;;;;;;;;;;;;;3.30;85.62;101565.50;5018684;28;19936;-79
2022/01/27 12:07:28;;;;;;;;;;;;;;;3.16;85.58;101557.84;5030495;28;20079;-79
2022/01/27 12:10:39;;;;;;;;;;;;;;;3.29;85.90;101563.78;5018101;28;19924;-79
2022/01/27 12:13:47;;;;;;;;;;;;;;;3.61;85.92;101554.97;5026842;28;19971;-79
2022/01/27 12:17:09;;;;;;;;;;;;;;;3.64;85.00;101554.97;5017883;28;19920;-79
2022/01/27 12:20:14;;;;;;;;;;;;;;;3.62;85.45;101557.53;5008935;28;19923;-79
2022/01/27 12:23:19;;;;;;;;;;;;;;;3.66;84.78;101553.19;4986715;28;19975;-79
2022/01/27 12:26:41;;;;;;;;;;;;;;;3.62;85.76;101551.50;5009930;28;20387;-79
2022/01/27 12:29:49;;;;;;;;;;;;;;;3.63;86.08;101537.69;5009142;28;19972;-79
2022/01/27 12:32:55;;;;;;;;;;;;;;;3.62;85.63;101536.00;5009350;28;20380;-79
2022/01/27 12:35:59;;;;;;;;;;;;;;;3.38;85.86;101519.78;5009372;28;20012;-79
2022/01/27 12:39:02;;;;;;;;;;;;;;;3.36;86.09;101523.25;5008866;28;19928;-79
2022/01/27 12:42:08;;;;;;;;;;;;;;;3.48;85.95;101524.03;5024398;28;19923;-79
2022/01/27 12:45:14;;;;;;;;;;;;;;;3.48;85.72;101508.50;5025043;28;19984;-79
2022/01/27 12:48:22;;;;;;;;;;;;;;;3.56;85.57;101505.00;5017342;28;19959;-80
2022/01/27 12:51:26;;;;;;;;;;;;;;;3.55;85.31;101514.50;5029584;28;19966;-79
2022/01/27 12:54:32;;;;;;;;;;;;;;;3.56;85.55;101498.09;5029154;28;19919;-79
2022/01/27 12:57:35;;;;;;;;;;;;;;;3.44;85.81;101503.34;5015842;28;19958;-79
2022/01/27 13:00:39;;;;;;;;;;;;;;;3.36;85.88;101503.41;5028399;28;19939;-79
2022/01/27 13:03:58;;;;;;;;;;;;;;;3.56;86.14;101494.66;5028744;28;19919;-79
2022/01/27 13:07:02;;;;;;;;;;;;;;;3.45;86.19;101493.03;5027814;28;20367;-79
2022/01/27 13:10:09;;;;;;;;;;;;;;;3.39;85.94;101503.41;5027561;28;19920;-79
2022/01/27 13:13:21;;;;;;;;;;;;;;;3.21;86.01;101503.50;5028354;28;20058;-81
2022/01/27 13:16:39;;;;;;;;;;;;;;;3.33;85.23;101502.59;5029728;28;19963;-79
2022/01/27 13:23:38;;;;;;;;;;;;;;;3.28;86.13;101474.16;5010066;28;19920;-79
2022/01/27 13:26:44;;;;;;;;;;;;;;;3.28;86.27;101471.59;5014833;28;19915;-79
2022/01/27 13:29:48;;;;;;;;;;;;;;;3.40;86.09;101468.06;5028168;28;19971;-79
2022/01/27 13:32:51;;;;;;;;;;;;;;;3.36;85.15;101469.81;5029738;28;20335;-79
2022/01/27 13:35:59;;;;;;;;;;;;;;;3.31;86.03;101463.81;5029127;28;19928;-79
2022/01/27 13:42:10;;;;;;;;;;;;;;;3.58;85.84;101456.72;5018066;28;19924;-79
2022/01/27 13:45:14;;;;;;;;;;;;;;;3.67;85.86;101454.03;5029072;28;19928;-78
2022/01/27 13:48:22;;;;;;;;;;;;;;;3.45;86.47;101458.56;5029604;28;19932;-79
2022/01/27 13:51:25;;;;;;;;;;;;;;;3.39;86.39;101456.88;5029217;28;19919;-79
2022/01/27 13:54:42;;;;;;;;;;;;;;;3.37;86.73;101452.56;5016669;28;20340;-79
2022/01/27 13:58:03;;;;;;;;;;;;;;;3.43;86.60;101458.56;4962027;28;10000106;-79
2022/01/27 14:01:13;;;;;;;;;;;;;;;3.49;86.55;101455.91;4994404;28;20432;-79
2022/01/27 14:04:19;;;;;;;;;;;;;;;3.61;86.20;101454.13;5005289;28;20031;-78
2022/01/27 14:07:25;;;;;;;;;;;;;;;3.64;86.06;101467.88;5025254;28;19952;-78
2022/01/27 14:10:37;;;;;;;;;;;;;;;3.58;86.55;101459.31;5012659;28;20020;-79
2022/01/27 14:18:25;;;;;;;;;;;;;;;3.73;85.72;101451.38;5027519;28;20398;-79
2022/01/27 14:21:30;;;;;;;;;;;;;;;3.67;85.72;101457.50;5024652;28;20563;-78
2022/01/27 14:24:56;;;;;;;;;;;;;;;3.56;85.39;101448.97;5001920;28;19971;-76
2022/01/27 14:28:00;;;;;;;;;;;;;;;3.77;85.37;101458.28;4318912;28;10000500;-77
2022/01/27 14:45:34;;;;;;;;;;;;;;;3.70;86.08;101466.94;4673734;28;9999701;-77
2022/01/27 14:48:40;;;;;;;;;;;;;;;3.65;86.48;101476.47;5008723;28;20452;-77
2022/01/27 14:51:46;;;;;;;;;;;;;;;3.66;87.00;101460.94;5012761;28;20646;-78
2022/01/27 14:54:53;;;;;;;;;;;;;;;3.68;85.99;101445.41;5025872;28;19924;-79
2022/01/27 14:57:59;;;;;;;;;;;;;;;3.64;87.12;101460.13;5013182;28;20402;-78
2022/01/27 15:01:03;;;;;;;;;;;;;;;3.62;87.35;101455.81;5004866;28;20620;-79
2022/01/27 15:04:07;;;;;;;;;;;;;;;3.75;87.12;101467.75;4994576;28;19960;-79
2022/01/27 15:07:32;;;;;;;;;;;;;;;3.62;87.65;101463.56;5009108;28;19924;-78
2022/01/27 15:18:49;;;;;;;;;;;;;;;3.52;88.50;101469.69;5017305;28;20578;-77
2022/01/27 15:21:53;;;;;;;;;;;;;;;3.40;88.53;101474.09;5014389;28;19927;-78
2022/01/27 15:24:57;;;;;;;;;;;;;;;3.51;88.31;101481.78;5034448;28;19974;-77
2022/01/27 15:28:01;;;;;;;;;;;;;;;3.52;88.07;101477.47;5035251;28;20064;-77
2022/01/27 18:45:17;;;;;;;;;;;;;;;4.10;84.72;101488.13;5018599;28;19948;-77
2022/01/27 18:48:27;;;;;;;;;;;;;;;4.10;84.90;101489.88;5039989;28;19970;-78
2022/01/27 18:51:32;;;;;;;;;;;;;;;4.05;84.68;101510.63;5030622;28;19967;-78
2022/01/27 18:54:36;;;;;;;;;;;;;;;4.06;84.95;101496.81;5036116;28;20340;-77
2022/01/27 18:57:43;;;;;;;;;;;;;;;4.10;85.15;101507.97;5021152;28;19920;-77
2022/01/27 19:00:47;;;;;;;;;;;;;;;4.13;85.10;101505.38;5028929;28;20315;-77
2022/01/27 19:03:50;;;;;;;;;;;;;;;4.16;85.25;101502.75;5037874;28;19962;-78
2022/01/27 19:06:54;;;;;;;;;;;;;;;4.18;85.14;101509.63;5023180;28;20387;-77
2022/01/27 19:09:57;;;;;;;;;;;;;;;4.19;85.03;101505.31;5029448;28;20523;-77
2022/01/27 19:13:02;;;;;;;;;;;;;;;4.23;85.00;101504.38;5035583;28;19955;-77
2022/01/27 19:16:05;;;;;;;;;;;;;;;4.27;85.01;101511.25;5037322;28;19939;-77
2022/01/27 19:19:09;;;;;;;;;;;;;;;4.26;85.04;101519.91;5036177;28;19920;-78
2022/01/27 19:22:12;;;;;;;;;;;;;;;4.32;85.58;101526.75;5031755;28;19925;-78
2022/01/27 19:25:18;;;;;;;;;;;;;;;4.28;85.38;101525.94;5031902;28;20387;-78
2022/01/27 19:28:21;;;;;;;;;;;;;;;4.37;85.47;101524.94;5011404;28;19920;-78
2022/01/27 19:31:25;;;;;;;;;;;;;;;4.41;85.17;101527.50;5012157;28;19987;-78
2022/01/27 19:38:22;;;;;;;;;;;;;;;4.46;85.86;101517.09;5011359;28;20472;-78
2022/01/27 19:41:29;;;;;;;;;;;;;;;4.55;85.44;101521.31;5012323;28;19924;-78
2022/01/27 19:44:33;;;;;;;;;;;;;;;4.61;85.66;101539.38;5030002;28;19920;-78
2022/01/27 19:47:37;;;;;;;;;;;;;;;4.64;85.56;101542.78;5031376;28;19982;-78
2022/01/27 19:50:41;;;;;;;;;;;;;;;4.75;85.31;101549.56;5029980;28;20491;-78
2022/01/27 19:53:45;;;;;;;;;;;;;;;4.80;85.41;101573.72;5017213;28;19920;-78
2022/01/27 19:56:49;;;;;;;;;;;;;;;4.88;84.92;101569.28;5026289;28;20446;-78
2022/01/27 19:59:52;;;;;;;;;;;;;;;4.82;85.48;101571.97;5017812;28;20017;-78
2022/01/27 20:02:57;;;;;;;;;;;;;;;5.00;84.87;101573.47;5030977;28;19963;-78
2022/01/27 20:06:00;;;;;;;;;;;;;;;4.81;84.42;101578.00;5031020;28;19920;-78
2022/01/27 20:09:04;;;;;;;;;;;;;;;4.81;84.61;101571.06;5031490;28;19954;-78
2022/01/27 20:12:11;;;;;;;;;;;;;;;4.89;84.14;101577.03;5018676;28;19919;-78
2022/01/27 20:15:15;;;;;;;;;;;;;;;4.92;84.10;101581.34;5031680;28;19924;-78
2022/01/27 20:18:20;;;;;;;;;;;;;;;4.89;84.77;101595.19;5030973;28;19963;-78
2022/01/27 20:21:24;;;;;;;;;;;;;;;4.88;85.78;101608.16;5031121;28;19923;-78
2022/01/27 20:24:28;;;;;;;;;;;;;;;4.84;86.53;101612.50;5006876;28;19924;-77
2022/01/27 20:27:31;;;;;;;;;;;;;;;4.85;87.14;101598.69;5018603;28;19956;-77
2022/01/27 20:30:34;;;;;;;;;;;;;;;4.62;87.69;101600.66;5017002;28;20315;-78
2022/01/27 20:33:38;;;;;;;;;;;;;;;4.62;87.77;101618.78;5028606;28;19916;-78
2022/01/27 20:36:41;;;;;;;;;;;;;;;4.62;88.28;101621.38;5030814;28;19948;-78
2022/01/27 20:39:44;;;;;;;;;;;;;;;4.62;88.42;101616.19;5029941;28;19923;-79
2022/01/27 20:42:48;;;;;;;;;;;;;;;4.62;87.77;101618.78;5031134;28;20011;-78
2022/01/27 20:45:52;;;;;;;;;;;;;;;4.71;87.71;101616.13;5030439;28;20287;-78
2022/01/27 20:48:57;;;;;;;;;;;;;;;4.78;87.48;101612.56;5031251;28;19924;-77
2022/01/27 20:52:01;;;;;;;;;;;;;;;4.73;87.58;101611.78;5018663;28;19912;-77
2022/01/27 20:55:05;;;;;;;;;;;;;;;4.77;87.29;101623.81;5016751;28;19920;-78
2022/01/27 20:58:08;;;;;;;;;;;;;;;4.79;88.55;101624.69;5009772;28;19963;-78
2022/01/27 21:01:12;;;;;;;;;;;;;;;4.84;88.81;101634.97;5010128;28;20012;-78
2022/01/27 21:04:15;;;;;;;;;;;;;;;4.79;89.01;101629.84;5010866;28;20298;-78
2022/01/27 21:07:19;;;;;;;;;;;;;;;4.68;89.43;101620.47;5014243;28;19959;-78
2022/01/27 21:10:23;;;;;;;;;;;;;;;4.72;89.53;101643.72;4998375;28;20423;-78
2022/01/27 21:13:29;;;;;;;;;;;;;;;4.83;89.03;101651.41;5008791;28;19923;-77
2022/01/27 21:16:32;;;;;;;;;;;;;;;4.84;88.48;101653.97;5017575;28;19924;-78